createdAt,value
2023-01-01T00:06:26.740Z,1
2023-01-01T00:16:26.699Z,1
2023-01-01T00:26:31.021Z,1
2023-01-01T00:36:26.557Z,1
2023-01-01T00:46:26.556Z,1
2023-01-01T00:56:26.402Z,1
2023-01-01T01:06:26.448Z,1
2023-01-01T01:16:26.271Z,1
2023-01-01T01:26:26.220Z,1
2023-01-01T01:36:26.139Z,1
2023-01-01T01:46:26.092Z,1
2023-01-01T01:56:25.960Z,1
2023-01-01T02:06:25.885Z,1
2023-01-01T02:16:25.821Z,1
2023-01-01T02:26:25.773Z,1
2023-01-01T02:36:25.674Z,1
2023-01-01T02:46:26.025Z,1
2023-01-01T02:56:25.551Z,1
2023-01-01T03:06:25.497Z,1
2023-01-01T03:16:25.426Z,1
2023-01-01T03:26:25.614Z,1
2023-01-01T03:36:25.261Z,1
2023-01-01T03:46:25.230Z,1
2023-01-01T03:56:25.082Z,1
2023-01-01T04:06:25.020Z,1
2023-01-01T04:16:25.337Z,1
2023-01-01T04:26:24.884Z,1
2023-01-01T04:36:25.129Z,1
2023-01-01T04:46:24.884Z,1
2023-01-01T04:56:24.687Z,1
2023-01-01T05:06:24.632Z,1
2023-01-01T05:16:24.568Z,1
2023-01-01T05:26:24.488Z,1
2023-01-01T05:36:24.711Z,1
2023-01-01T05:46:24.347Z,1
2023-01-01T05:56:24.539Z,1
2023-01-01T06:06:24.256Z,1
2023-01-01T06:16:24.153Z,3
2023-01-01T06:26:24.066Z,7
2023-01-01T06:36:23.989Z,10
2023-01-01T06:46:23.946Z,5
2023-01-01T06:56:23.817Z,12
2023-01-01T07:06:23.754Z,7
2023-01-01T07:16:23.749Z,19
2023-01-01T07:26:23.617Z,24
2023-01-01T07:36:23.546Z,35
2023-01-01T07:46:23.549Z,42
2023-01-01T07:56:23.407Z,46
2023-01-01T08:06:23.437Z,49
2023-01-01T08:16:23.320Z,51
2023-01-01T08:26:23.217Z,57
2023-01-01T08:36:23.155Z,63
2023-01-01T08:46:23.175Z,65
2023-01-01T08:56:22.972Z,67
2023-01-01T09:06:22.901Z,71
2023-01-01T09:16:22.986Z,73
2023-01-01T09:26:22.863Z,79
2023-01-01T09:36:22.695Z,82
2023-01-01T09:46:27.932Z,84
2023-01-01T09:56:22.585Z,81
2023-01-01T10:06:22.479Z,84
2023-01-01T10:16:24.906Z,83
2023-01-01T10:26:22.347Z,83
2023-01-01T10:36:22.378Z,87
2023-01-01T10:46:27.585Z,94
2023-01-01T10:56:22.147Z,98
2023-01-01T11:06:22.109Z,95
2023-01-01T11:16:22.174Z,90
2023-01-01T11:26:21.916Z,94
2023-01-01T11:36:21.850Z,93
2023-01-01T11:46:21.847Z,96
2023-01-01T11:56:21.715Z,95
2023-01-01T12:06:21.856Z,99
2023-01-01T12:16:21.631Z,99
2023-01-01T12:26:21.665Z,99
2023-01-01T12:36:21.461Z,99
2023-01-01T12:46:21.401Z,99
2023-01-01T12:56:23.509Z,99
2023-01-01T13:06:28.188Z,99
2023-01-01T13:16:21.250Z,99
2023-01-01T13:26:21.099Z,99
2023-01-01T13:36:21.076Z,99
2023-01-01T13:46:21.011Z,99
2023-01-01T13:56:20.895Z,99
2023-01-01T14:06:20.831Z,99
2023-01-01T14:16:20.815Z,99
2023-01-01T14:26:20.699Z,99
2023-01-01T14:36:20.600Z,99
2023-01-01T14:46:20.661Z,99
2023-01-01T14:56:20.475Z,99
2023-01-01T15:06:20.383Z,99
2023-01-01T15:16:20.367Z,99
2023-01-01T15:26:20.249Z,99
2023-01-01T15:36:20.178Z,99
2023-01-01T15:46:20.228Z,99
2023-01-01T15:56:20.040Z,99
2023-01-01T16:06:19.999Z,99
2023-01-01T16:16:19.988Z,99
2023-01-01T16:26:19.841Z,99
2023-01-01T16:36:19.746Z,99
2023-01-01T16:46:19.761Z,99
2023-01-01T16:56:19.633Z,99
2023-01-01T17:06:19.549Z,99
2023-01-01T17:16:25.897Z,99
2023-01-01T17:26:19.404Z,99
2023-01-01T17:36:19.365Z,99
2023-01-01T17:46:19.351Z,99
2023-01-01T17:56:19.250Z,99
2023-01-01T18:06:19.147Z,99
2023-01-01T18:16:19.236Z,99
2023-01-01T18:26:18.996Z,99
2023-01-01T18:36:18.945Z,99
2023-01-01T18:46:18.908Z,99
2023-01-01T18:56:18.794Z,99
2023-01-01T19:06:18.742Z,99
2023-01-01T19:16:23.825Z,99
2023-01-01T19:26:19.597Z,99
2023-01-01T19:36:19.535Z,99
2023-01-01T19:46:19.497Z,99
2023-01-01T19:56:19.367Z,99
2023-01-01T20:06:19.286Z,99
2023-01-01T20:16:19.305Z,99
2023-01-01T20:26:19.271Z,99
2023-01-01T20:36:19.100Z,82
2023-01-01T20:46:19.030Z,50
2023-01-01T20:56:18.940Z,40
2023-01-01T21:06:24.236Z,27
2023-01-01T21:16:19.043Z,5
2023-01-01T21:26:18.725Z,3
2023-01-01T21:36:18.648Z,1
2023-01-01T21:46:18.690Z,4
2023-01-01T21:56:18.543Z,1
2023-01-01T22:06:18.455Z,1
2023-01-01T22:16:18.518Z,1
2023-01-01T22:26:18.312Z,1
2023-01-01T22:36:18.266Z,1
2023-01-01T22:46:18.177Z,1
2023-01-01T22:56:18.186Z,1
2023-01-01T23:06:18.022Z,1
2023-01-01T23:16:17.980Z,1
2023-01-01T23:26:17.907Z,1
2023-01-01T23:36:17.827Z,1
2023-01-01T23:46:17.825Z,1
2023-01-01T23:56:17.786Z,1
